Time;durP1;ratioP1;P1;durP2;ratioP2;P2;SDS_P1;SDS_P2;PMS_P1;PMS_P2;Temp;Humidity;BMP_temperature;BMP_pressure;BME280_temperature;BME280_humidity;BME280_pressure;Samples;Min_cycle;Max_cycle;Signal;HPM_P1;HPM_P2
2022/05/13 00:01:43;;;;;;;5.93;5.40;;;22.80;55.20;;;;;;20693;6778;117940;-69
2022/05/13 00:04:19;;;;;;;6.23;5.67;;;22.70;55.30;;;;;;20864;6754;117920;-69
2022/05/13 00:06:54;;;;;;;5.40;5.00;;;22.50;55.90;;;;;;20900;6750;119588;-68
2022/05/13 00:12:25;;;;;;;5.43;5.13;;;22.50;55.80;;;;;;20637;6772;123064;-69
2022/05/13 00:15:01;;;;;;;6.00;5.60;;;22.50;56.00;;;;;;20888;6737;121901;-70
2022/05/13 00:17:37;;;;;;;5.10;4.80;;;22.40;56.50;;;;;;20818;6750;118655;-70
2022/05/13 00:20:12;;;;;;;5.80;5.50;;;22.20;56.90;;;;;;20571;6752;276366;-69
2022/05/13 00:22:48;;;;;;;6.32;5.82;;;22.50;56.20;;;;;;20581;6760;307266;-70
2022/05/13 00:25:23;;;;;;;6.13;5.63;;;22.90;55.30;;;;;;20628;6748;279105;-70
2022/05/13 00:27:59;;;;;;;6.40;6.00;;;23.20;54.50;;;;;;20585;6765;311612;-71
2022/05/13 00:30:35;;;;;;;5.97;5.57;;;23.10;53.80;;;;;;20764;6754;117159;-69
2022/05/13 00:33:11;;;;;;;6.77;6.07;;;23.10;54.30;;;;;;20640;6742;311762;-69
2022/05/13 00:35:46;;;;;;;6.13;5.73;;;23.20;54.20;;;;;;20854;6746;117096;-68
2022/05/13 00:38:22;;;;;;;6.50;5.90;;;22.90;54.60;;;;;;20835;6742;118196;-70
2022/05/13 00:40:59;;;;;;;6.93;6.53;;;22.60;55.20;;;;;;20586;6743;278644;-69
2022/05/13 00:43:51;;;;;;;6.87;6.37;;;22.60;55.20;;;;;;20814;6754;116937;-69
2022/05/13 00:46:26;;;;;;;5.33;5.10;;;22.50;55.60;;;;;;20777;6759;118727;-69
2022/05/13 00:49:01;;;;;;;5.97;5.57;;;22.20;56.20;;;;;;20808;6742;116851;-70
2022/05/13 00:51:36;;;;;;;6.17;5.77;;;22.00;56.80;;;;;;20523;6742;282507;-69
2022/05/13 00:54:13;;;;;;;5.73;5.43;;;22.20;56.30;;;;;;20785;6739;117189;-70
2022/05/13 00:56:48;;;;;;;6.30;5.73;;;22.10;56.50;;;;;;20870;6742;118548;-69
2022/05/13 00:59:23;;;;;;;6.40;6.00;;;22.00;57.10;;;;;;20651;6742;318220;-69
2022/05/13 01:01:59;;;;;;;6.10;5.80;;;22.20;56.50;;;;;;20532;6742;308317;-70
2022/05/13 01:04:34;;;;;;;6.57;6.17;;;22.60;55.70;;;;;;20796;6763;117345;-70
2022/05/13 01:07:13;;;;;;;6.20;5.90;;;22.50;55.70;;;;;;20733;6782;122951;-69
2022/05/13 01:09:51;;;;;;;6.20;5.90;;;22.20;56.40;;;;;;20630;6748;282444;-69
2022/05/13 01:12:29;;;;;;;6.30;5.90;;;22.20;56.30;;;;;;20646;6748;117217;-69
2022/05/13 01:15:10;;;;;;;6.97;6.43;;;22.20;56.20;;;;;;20840;6748;116901;-69
2022/05/13 01:18:06;;;;;;;7.17;6.77;;;21.70;57.50;;;;;;20810;6808;117453;-69
2022/05/13 01:20:46;;;;;;;7.07;6.68;;;21.70;57.40;;;;;;20577;6748;338054;-70
2022/05/13 01:23:17;;;;;;;6.83;6.33;;;21.90;56.80;;;;;;20648;6742;279537;-69
2022/05/13 01:25:56;;;;;;;7.27;6.87;;;22.30;56.00;;;;;;20853;6742;117059;-69
2022/05/13 01:28:34;;;;;;;7.20;6.70;;;22.10;56.30;;;;;;20839;6742;122718;-69
2022/05/13 01:31:09;;;;;;;6.30;5.90;;;21.80;57.10;;;;;;20785;6742;116930;-69
2022/05/13 01:33:45;;;;;;;6.20;5.73;;;21.60;57.80;;;;;;20882;6733;117469;-69
2022/05/13 01:36:21;;;;;;;6.70;6.27;;;21.50;58.40;;;;;;20861;6733;116874;-69
2022/05/13 01:38:56;;;;;;;6.47;6.07;;;21.40;58.80;;;;;;20886;6733;116972;-69
2022/05/13 01:41:32;;;;;;;7.57;7.07;;;21.40;59.10;;;;;;20532;6733;280845;-69
2022/05/13 01:44:07;;;;;;;6.87;6.47;;;21.80;58.30;;;;;;20647;6733;276810;-69
2022/05/13 01:46:43;;;;;;;7.43;6.70;;;22.20;57.00;;;;;;20884;6733;117706;-69
2022/05/13 01:49:22;;;;;;;6.80;6.27;;;22.20;57.20;;;;;;20679;6733;308616;-69
2022/05/13 01:51:55;;;;;;;6.17;5.77;;;22.30;56.90;;;;;;20719;6733;123256;-69
2022/05/13 01:54:30;;;;;;;6.97;6.47;;;22.30;56.80;;;;;;20679;6733;306060;-69
2022/05/13 01:57:06;;;;;;;6.63;5.83;;;22.50;56.20;;;;;;20893;6733;116953;-69
2022/05/13 01:59:41;;;;;;;6.13;5.73;;;22.40;56.50;;;;;;20888;6733;116972;-69
2022/05/13 02:02:17;;;;;;;7.63;6.30;;;22.20;57.10;;;;;;20668;6733;117660;-69
2022/05/13 02:04:53;;;;;;;6.30;5.80;;;21.90;57.60;;;;;;20887;6733;117481;-69
2022/05/13 02:07:28;;;;;;;7.07;6.57;;;21.80;58.00;;;;;;20881;6733;117031;-69
2022/05/13 02:10:04;;;;;;;6.60;6.10;;;21.70;58.30;;;;;;20784;6748;117999;-70
2022/05/13 02:12:40;;;;;;;6.70;6.20;;;21.80;57.60;;;;;;20548;6772;312680;-69
2022/05/13 02:15:16;;;;;;;6.20;5.67;;;21.80;57.50;;;;;;20733;6772;117640;-69
2022/05/13 02:17:51;;;;;;;6.60;6.10;;;21.80;57.60;;;;;;20696;6798;120179;-69
2022/05/13 02:20:27;;;;;;;6.90;6.50;;;21.60;58.20;;;;;;20752;6756;116981;-69
2022/05/13 02:23:02;;;;;;;6.67;6.17;;;21.50;58.70;;;;;;20791;6745;116999;-69
2022/05/13 02:25:38;;;;;;;6.60;6.20;;;21.40;59.00;;;;;;20813;6748;117315;-69
2022/05/13 02:28:13;;;;;;;6.07;5.60;;;21.30;59.30;;;;;;20767;6748;118297;-70
2022/05/13 02:30:49;;;;;;;6.20;5.90;;;21.30;59.50;;;;;;20611;6737;278197;-69
2022/05/13 02:33:25;;;;;;;6.37;6.07;;;21.70;58.30;;;;;;20683;6737;283852;-69
2022/05/13 02:36:00;;;;;;;6.10;5.80;;;22.20;56.90;;;;;;20589;6752;306315;-69
2022/05/13 02:38:36;;;;;;;6.97;6.40;;;22.50;55.70;;;;;;20817;6756;118238;-69
2022/05/13 02:41:11;;;;;;;6.40;5.90;;;22.40;55.90;;;;;;20738;6752;118756;-69
2022/05/13 02:43:47;;;;;;;6.20;5.80;;;22.00;56.50;;;;;;20790;6759;117589;-68
2022/05/13 02:46:22;;;;;;;6.40;6.00;;;21.70;57.20;;;;;;20785;6756;118415;-69
2022/05/13 02:48:58;;;;;;;6.43;6.03;;;21.40;57.70;;;;;;20764;6756;117700;-69
2022/05/13 02:51:34;;;;;;;7.10;6.70;;;21.20;58.20;;;;;;20495;6741;279725;-69
2022/05/13 02:54:09;;;;;;;6.43;6.03;;;21.50;57.50;;;;;;20585;6756;310093;-69
2022/05/13 02:56:45;;;;;;;7.53;6.97;;;22.20;55.90;;;;;;20590;6756;307772;-69
2022/05/13 02:59:21;;;;;;;6.97;6.57;;;22.20;56.40;;;;;;20806;6756;118353;-69
2022/05/13 03:01:56;;;;;;;6.13;5.70;;;22.00;56.10;;;;;;20678;6741;120918;-69
2022/05/13 03:04:32;;;;;;;7.03;6.60;;;21.70;56.90;;;;;;20850;6756;117660;-69
2022/05/13 03:07:08;;;;;;;6.77;6.30;;;21.40;57.70;;;;;;20792;6756;117578;-69
2022/05/13 03:09:43;;;;;;;7.40;6.80;;;21.20;58.30;;;;;;20595;6755;277650;-69
2022/05/13 03:12:19;;;;;;;7.68;7.18;;;21.50;58.20;;;;;;20403;6741;442652;-69
2022/05/13 03:14:54;;;;;;;7.40;6.90;;;21.90;56.50;;;;;;20836;6741;118628;-68
2022/05/13 03:17:30;;;;;;;7.17;6.77;;;21.70;56.80;;;;;;20820;6744;116968;-69
2022/05/13 03:20:06;;;;;;;6.83;6.43;;;21.50;57.60;;;;;;20590;6756;276998;-69
2022/05/13 03:22:42;;;;;;;6.33;5.93;;;22.00;57.10;;;;;;20643;6741;277325;-69
2022/05/13 03:25:18;;;;;;;6.47;5.97;;;22.00;56.40;;;;;;20619;6744;306459;-69
2022/05/13 03:27:53;;;;;;;8.18;6.87;;;22.30;55.40;;;;;;20610;6756;336292;-68
2022/05/13 03:30:30;;;;;;;14.20;7.23;;;22.60;55.40;;;;;;20657;6771;117366;-68
2022/05/13 03:33:06;;;;;;;7.60;7.10;;;22.40;55.90;;;;;;20505;6789;306616;-67
2022/05/13 03:35:41;;;;;;;7.43;7.00;;;22.40;55.70;;;;;;20528;6784;281233;-67
2022/05/13 03:38:17;;;;;;;7.10;6.50;;;22.60;55.40;;;;;;20697;6781;117888;-67
2022/05/13 03:40:52;;;;;;;8.23;7.70;;;22.40;55.90;;;;;;20523;6756;309354;-67
2022/05/13 03:43:28;;;;;;;7.30;6.90;;;22.40;55.60;;;;;;20537;6774;337137;-69
2022/05/13 03:46:04;;;;;;;7.60;7.10;;;22.60;55.20;;;;;;20592;6756;307098;-68
2022/05/13 03:48:39;;;;;;;6.70;6.40;;;22.70;55.10;;;;;;20818;6756;117585;-68
2022/05/13 03:51:15;;;;;;;6.77;6.30;;;22.10;56.00;;;;;;20702;6756;117616;-68
2022/05/13 03:53:51;;;;;;;6.90;6.50;;;22.10;56.50;;;;;;20605;6756;310373;-69
2022/05/13 03:56:27;;;;;;;7.07;6.57;;;22.20;55.90;;;;;;20578;6756;306282;-68
2022/05/13 03:59:03;;;;;;;7.57;7.07;;;22.60;55.00;;;;;;20606;6756;308644;-68
2022/05/13 04:01:39;;;;;;;7.33;6.83;;;22.60;55.00;;;;;;20510;6756;308161;-68
2022/05/13 04:04:20;;;;;;;6.80;6.50;;;22.70;54.80;;;;;;20795;6756;117463;-68
2022/05/13 04:09:45;;;;;;;6.63;6.23;;;22.50;55.20;;;;;;20825;6756;117267;-68
2022/05/13 04:18:12;;;;;;;7.37;6.97;;;21.60;57.50;;;;;;20849;6756;117044;-69
2022/05/13 04:20:47;;;;;;;7.57;7.10;;;21.30;58.10;;;;;;20811;6754;116816;-69
2022/05/13 04:23:23;;;;;;;7.00;6.60;;;21.20;58.50;;;;;;20863;6757;117412;-68
2022/05/13 04:25:59;;;;;;;6.87;6.47;;;21.00;58.90;;;;;;20858;6757;117490;-68
2022/05/13 04:28:34;;;;;;;6.83;6.43;;;20.90;59.30;;;;;;20860;6757;117534;-68
2022/05/13 04:31:10;;;;;;;7.00;6.60;;;20.90;59.50;;;;;;20773;6757;117447;-68
2022/05/13 04:33:45;;;;;;;7.23;6.80;;;20.90;59.80;;;;;;20874;6756;117189;-69
2022/05/13 04:36:21;;;;;;;7.00;6.60;;;20.80;60.00;;;;;;20618;6756;322923;-69
2022/05/13 04:38:56;;;;;;;7.67;7.00;;;21.30;59.30;;;;;;20670;6756;306163;-71
2022/05/13 04:44:28;;;;;;;8.50;8.10;;;22.20;56.80;;;;;;20586;6756;338799;-69
2022/05/13 04:48:14;;;;;;;7.73;7.27;;;22.50;55.80;;;;;;20596;6756;307184;-69
2022/05/13 04:49:39;;;;;;;7.43;6.90;;;22.60;55.40;;;;;;20720;6832;117525;-69
2022/05/13 04:52:15;;;;;;;7.70;7.20;;;22.50;55.70;;;;;;20414;6774;283630;-69
2022/05/13 04:54:51;;;;;;;6.90;6.40;;;22.50;55.70;;;;;;20839;6756;117544;-69
2022/05/13 04:57:26;;;;;;;7.03;6.70;;;22.40;56.30;;;;;;20832;6756;123075;-72
2022/05/13 05:00:02;;;;;;;8.23;7.73;;;22.10;57.00;;;;;;20601;6756;307400;-71
2022/05/13 05:02:38;;;;;;;7.60;7.07;;;22.20;56.60;;;;;;20832;6756;117498;-71
2022/05/13 05:05:14;;;;;;;6.97;6.57;;;22.20;57.00;;;;;;20827;6756;116964;-71
2022/05/13 05:07:49;;;;;;;7.17;6.77;;;21.90;57.70;;;;;;20818;6755;117021;-71
2022/05/13 05:10:25;;;;;;;8.20;7.70;;;21.70;58.30;;;;;;20546;6759;309132;-71
2022/05/13 05:13:00;;;;;;;7.57;7.07;;;21.90;57.50;;;;;;20815;6756;117995;-69
2022/05/13 05:15:36;;;;;;;8.27;7.60;;;21.90;57.70;;;;;;20847;6741;117187;-69
2022/05/13 05:18:12;;;;;;;8.30;7.70;;;22.00;57.80;;;;;;20568;6759;306997;-69
2022/05/13 05:20:48;;;;;;;8.25;7.68;;;22.00;57.70;;;;;;20522;6761;313411;-71
2022/05/13 05:23:23;;;;;;;8.40;7.80;;;22.30;56.70;;;;;;20834;6751;124002;-69
2022/05/13 05:25:59;;;;;;;8.60;8.10;;;22.20;57.00;;;;;;20628;6751;282587;-71
2022/05/13 05:28:38;;;;;;;7.27;6.93;;;22.30;57.20;;;;;;20814;6756;117847;-69
2022/05/13 05:31:14;;;;;;;8.23;7.57;;;22.30;57.20;;;;;;20720;6756;117000;-70
2022/05/13 05:33:50;;;;;;;7.53;6.97;;;22.00;57.80;;;;;;20816;6755;116937;-70
2022/05/13 05:36:25;;;;;;;8.23;7.63;;;21.80;58.40;;;;;;20804;6755;118844;-70
2022/05/13 05:39:01;;;;;;;8.57;8.07;;;21.80;57.90;;;;;;20604;6756;310667;-70
2022/05/13 05:41:38;;;;;;;8.17;7.57;;;21.80;57.90;;;;;;20727;6756;117389;-71
2022/05/13 05:44:14;;;;;;;7.23;6.83;;;21.70;58.00;;;;;;20802;6756;123013;-71
2022/05/13 05:46:50;;;;;;;8.20;7.67;;;21.50;58.80;;;;;;20592;6759;306720;-70
2022/05/13 05:49:26;;;;;;;9.53;8.93;;;22.00;57.90;;;;;;20592;6761;336884;-70
2022/05/13 05:52:02;;;;;;;10.07;9.37;;;21.90;57.80;;;;;;20446;6741;312773;-70
2022/05/13 05:57:33;;;;;;;9.20;8.70;;;21.40;59.10;;;;;;20861;6756;118265;-69
2022/05/13 06:00:10;;;;;;;9.43;8.88;;;21.40;59.10;;;;;;20633;6756;305902;-69
2022/05/13 06:02:45;;;;;;;8.43;7.93;;;21.50;58.60;;;;;;20652;6757;310279;-69
2022/05/13 06:05:20;;;;;;;8.97;8.20;;;21.70;57.80;;;;;;20860;6757;117443;-70
2022/05/13 06:07:59;;;;;;;8.80;8.30;;;21.60;58.10;;;;;;20639;6757;339828;-70
2022/05/13 06:10:31;;;;;;;8.85;8.32;;;21.60;58.00;;;;;;20525;6770;324873;-69
2022/05/13 06:13:07;;;;;;;9.93;9.20;;;21.80;57.80;;;;;;20870;6741;117360;-69
2022/05/13 06:15:43;;;;;;;10.90;10.27;;;21.50;58.20;;;;;;20619;6756;292226;-69
2022/05/13 06:18:18;;;;;;;9.97;9.37;;;21.50;59.00;;;;;;20783;6756;128216;-69
2022/05/13 06:20:54;;;;;;;10.77;9.77;;;21.30;59.50;;;;;;20765;6756;120397;-69
2022/05/13 06:23:29;;;;;;;10.53;8.07;;;20.90;60.40;;;;;;20828;6756;117698;-70
2022/05/13 06:26:05;;;;;;;8.80;7.97;;;20.50;60.70;;;;;;20577;6756;301995;-70
2022/05/13 06:28:41;;;;;;;7.45;6.82;;;20.60;62.00;;;;;;20648;6741;306614;-69
2022/05/13 06:31:18;;;;;;;6.63;6.13;;;20.60;62.00;;;;;;20747;6741;116956;-70
2022/05/13 06:33:55;;;;;;;7.13;6.53;;;20.30;62.40;;;;;;20605;6756;278582;-70
2022/05/13 06:36:28;;;;;;;7.03;6.53;;;20.30;63.30;;;;;;20580;6756;330408;-70
2022/05/13 06:39:03;;;;;;;6.90;5.83;;;20.50;62.90;;;;;;20798;6759;117190;-71
2022/05/13 06:41:40;;;;;;;7.20;6.70;;;20.30;63.30;;;;;;20439;6761;309713;-70
2022/05/13 06:44:18;;;;;;;6.40;5.90;;;20.20;65.60;;;;;;20833;6740;118286;-72
2022/05/13 06:46:50;;;;;;;6.43;5.93;;;20.00;65.80;;;;;;20603;6755;332224;-73
2022/05/13 06:49:26;;;;;;;6.23;5.63;;;20.20;65.20;;;;;;20825;6756;117575;-71
2022/05/13 06:52:03;;;;;;;6.10;5.70;;;20.00;65.20;;;;;;20663;6756;117952;-71
2022/05/13 06:54:37;;;;;;;6.43;5.93;;;19.70;65.90;;;;;;20587;6759;306970;-70
2022/05/13 06:57:13;;;;;;;5.80;5.40;;;19.80;65.40;;;;;;20647;6741;343803;-72
2022/05/13 06:59:48;;;;;;;5.53;5.23;;;20.10;68.30;;;;;;20854;6744;117048;-70
2022/05/13 07:02:24;;;;;;;5.70;5.30;;;20.10;69.20;;;;;;20438;6756;309473;-71
2022/05/13 07:05:00;;;;;;;6.25;5.85;;;20.70;65.10;;;;;;20634;6752;306201;-71
2022/05/13 07:07:41;;;;;;;6.07;5.57;;;20.60;65.00;;;;;;20626;6753;335449;-71
2022/05/13 07:10:12;;;;;;;6.00;5.50;;;21.00;65.30;;;;;;20859;6753;117178;-70
2022/05/13 07:12:47;;;;;;;5.83;5.43;;;20.80;65.30;;;;;;20820;6756;123346;-69
2022/05/13 07:15:22;;;;;;;6.00;5.60;;;20.50;65.80;;;;;;20632;6741;307185;-70
2022/05/13 07:17:58;;;;;;;5.50;5.13;;;20.60;64.80;;;;;;20635;6744;310207;-68
2022/05/13 07:20:33;;;;;;;5.40;5.00;;;20.90;65.40;;;;;;20565;6756;308612;-70
2022/05/13 07:23:09;;;;;;;5.05;4.70;;;21.30;64.20;;;;;;20601;6759;319809;-68
2022/05/13 07:25:45;;;;;;;5.20;4.80;;;21.60;62.50;;;;;;20619;6755;280307;-68
2022/05/13 07:28:20;;;;;;;5.33;4.93;;;21.80;61.90;;;;;;20819;6755;120424;-68
2022/05/13 07:30:56;;;;;;;5.80;5.30;;;21.60;62.30;;;;;;20563;6755;282704;-67
2022/05/13 07:33:32;;;;;;;5.60;5.07;;;21.60;62.10;;;;;;20615;6755;312507;-67
2022/05/13 07:36:07;;;;;;;5.20;4.80;;;21.80;61.20;;;;;;20816;6755;117406;-67
2022/05/13 07:41:16;;;;;;;5.43;5.00;;;21.70;61.80;;;;;;20834;6755;117653;-67
2022/05/13 07:41:20;;;;;;;5.70;5.20;;;21.30;62.70;;;;;;20503;6811;277813;-68
2022/05/13 07:43:54;;;;;;;5.20;4.80;;;21.70;62.70;;;;;;20650;6741;276737;-67
2022/05/13 07:46:30;;;;;;;5.60;5.10;;;21.60;62.00;;;;;;20602;6759;336225;-69
2022/05/13 07:49:06;;;;;;;5.57;5.17;;;21.90;61.20;;;;;;20806;6761;117155;-68
2022/05/13 07:51:41;;;;;;;5.68;5.28;;;21.80;61.60;;;;;;20488;6741;296769;-69
2022/05/13 07:54:17;;;;;;;5.13;4.77;;;21.80;61.50;;;;;;20855;6756;117207;-67
2022/05/13 07:56:52;;;;;;;5.87;5.40;;;21.70;61.80;;;;;;20604;6755;277652;-68
2022/05/13 07:59:28;;;;;;;5.90;5.53;;;21.70;61.20;;;;;;20853;6741;123172;-68
2022/05/13 08:02:04;;;;;;;5.50;5.10;;;21.30;62.00;;;;;;20595;6759;118106;-67
2022/05/13 08:04:40;;;;;;;5.60;5.23;;;21.30;62.00;;;;;;20828;6756;117068;-67
2022/05/13 08:07:15;;;;;;;5.50;5.10;;;21.00;62.80;;;;;;20863;6741;119675;-67
2022/05/13 08:09:51;;;;;;;6.20;5.70;;;20.80;63.60;;;;;;20584;6759;307100;-67
2022/05/13 08:12:28;;;;;;;5.70;5.30;;;21.00;63.10;;;;;;20358;6761;309663;-67
2022/05/13 08:15:02;;;;;;;5.87;5.37;;;21.40;62.60;;;;;;20800;6761;117511;-68
2022/05/13 08:17:38;;;;;;;5.57;5.10;;;21.30;62.70;;;;;;20714;6781;117212;-68
2022/05/13 08:20:13;;;;;;;5.40;4.90;;;21.10;63.40;;;;;;20674;6784;117321;-69
2022/05/13 08:22:49;;;;;;;5.37;4.97;;;20.90;64.00;;;;;;20497;6757;276960;-74
2022/05/13 08:25:25;;;;;;;5.43;5.00;;;21.10;63.30;;;;;;20868;6741;117421;-70
2022/05/13 08:28:00;;;;;;;5.70;5.30;;;21.10;63.40;;;;;;20577;6761;275566;-71
2022/05/13 08:30:37;;;;;;;5.28;4.97;;;21.30;62.40;;;;;;20564;6761;336923;-71
2022/05/13 08:33:12;;;;;;;5.60;5.20;;;22.00;59.80;;;;;;20641;6750;276209;-70
2022/05/13 08:35:48;;;;;;;5.40;4.90;;;22.00;59.80;;;;;;20820;6750;117382;-68
2022/05/13 08:38:23;;;;;;;4.93;4.43;;;21.80;60.20;;;;;;20475;6786;308235;-69
2022/05/13 08:41:09;;;;;;;6.20;4.85;;;21.90;60.00;;;;;;20461;6786;339009;-68
2022/05/13 08:43:47;;;;;;;4.70;4.30;;;22.20;59.10;;;;;;20603;6756;307068;-69
2022/05/13 08:46:42;;;;;;;5.00;4.50;;;22.50;58.60;;;;;;20593;6756;307084;-70
2022/05/13 08:49:42;;;;;;;4.80;4.37;;;22.50;58.90;;;;;;20817;6756;118209;-68
2022/05/13 08:55:33;;;;;;;4.40;4.00;;;22.10;59.40;;;;;;20838;6756;118741;-72
2022/05/13 08:58:12;;;;;;;5.37;4.43;;;21.80;60.20;;;;;;20594;6756;321604;-69
2022/05/13 09:00:49;;;;;;;4.85;4.37;;;22.00;59.80;;;;;;20540;6756;326608;-70
2022/05/13 09:03:30;;;;;;;5.50;3.90;;;22.30;58.70;;;;;;20814;6756;117082;-70
2022/05/13 09:06:19;;;;;;;4.77;4.37;;;22.10;58.80;;;;;;20604;6756;308073;-70
2022/05/13 09:08:55;;;;;;;4.30;3.90;;;22.20;58.10;;;;;;20876;6755;116070;-68
2022/05/13 09:11:48;;;;;;;4.70;4.10;;;21.80;59.80;;;;;;20734;6755;117080;-69
2022/05/13 09:14:33;;;;;;;5.18;4.12;;;21.70;59.70;;;;;;20019;6812;335885;-68
2022/05/13 09:17:35;;;;;;;4.77;4.33;;;22.00;58.60;;;;;;20804;6759;117531;-69
2022/05/13 09:20:15;;;;;;;4.47;4.07;;;21.90;58.80;;;;;;20840;6741;117087;-70
2022/05/13 09:22:52;;;;;;;5.15;4.10;;;21.60;59.70;;;;;;20604;6756;335291;-70
2022/05/13 09:25:37;;;;;;;6.10;4.00;;;21.70;59.40;;;;;;20870;6741;121042;-69
2022/05/13 09:28:13;;;;;;;4.77;4.33;;;21.70;59.50;;;;;;20826;6741;119915;-69
2022/05/13 09:30:53;;;;;;;5.20;4.10;;;21.50;60.00;;;;;;20738;6759;117529;-68
2022/05/13 09:33:36;;;;;;;4.30;4.00;;;21.30;60.50;;;;;;20851;6741;117105;-68
2022/05/13 09:36:21;;;;;;;4.40;4.00;;;21.60;59.90;;;;;;20581;6756;307850;-70
2022/05/13 09:38:58;;;;;;;4.10;3.90;;;21.70;60.00;;;;;;20823;6756;117181;-72
2022/05/13 09:41:33;;;;;;;4.47;4.07;;;21.90;60.30;;;;;;20508;6756;297109;-71
2022/05/13 09:44:12;;;;;;;4.13;3.73;;;22.30;58.80;;;;;;20788;6759;118587;-69
2022/05/13 09:46:47;;;;;;;4.50;4.10;;;22.40;59.00;;;;;;20553;6819;306596;-70
2022/05/13 09:49:36;;;;;;;5.50;3.33;;;22.70;57.30;;;;;;20770;6802;117990;-69
2022/05/13 09:52:12;;;;;;;4.30;3.77;;;22.80;57.90;;;;;;20644;6744;117481;-69
2022/05/13 09:54:47;;;;;;;5.40;3.67;;;22.70;58.50;;;;;;20812;6756;117513;-69
2022/05/13 09:57:33;;;;;;;4.07;3.77;;;22.50;58.80;;;;;;20819;6756;117077;-69
2022/05/13 10:00:15;;;;;;;4.03;3.60;;;22.50;59.10;;;;;;20781;6756;117389;-69
2022/05/13 10:02:51;;;;;;;4.70;3.60;;;22.40;59.30;;;;;;20812;6741;119552;-69
2022/05/13 10:05:26;;;;;;;5.87;4.13;;;22.40;59.40;;;;;;20818;6745;117422;-68
2022/05/13 10:08:05;;;;;;;6.00;4.07;;;22.20;60.10;;;;;;20795;6756;118516;-70
2022/05/13 10:16:46;;;;;;;4.70;4.10;;;22.90;56.30;;;;;;20590;6756;306620;-70
2022/05/13 10:19:23;;;;;;;6.00;3.97;;;23.30;55.20;;;;;;20618;6740;306485;-69
2022/05/13 10:22:08;;;;;;;5.35;4.07;;;23.30;54.90;;;;;;20456;6744;311808;-69
2022/05/13 10:25:13;;;;;;;6.40;5.00;;;23.60;54.00;;;;;;20595;6756;306710;-69
2022/05/13 10:27:49;;;;;;;5.60;5.00;;;23.90;53.30;;;;;;20649;6749;276290;-68
2022/05/13 10:30:54;;;;;;;6.00;5.07;;;24.10;52.70;;;;;;20599;6751;313107;-68
2022/05/13 10:33:49;;;;;;;5.07;4.37;;;24.20;51.40;;;;;;20826;6756;117199;-68
2022/05/13 10:36:25;;;;;;;5.27;4.60;;;23.80;52.70;;;;;;20808;6756;118871;-69
2022/05/13 10:39:00;;;;;;;8.57;4.33;;;23.30;53.70;;;;;;20827;6756;117126;-71
2022/05/13 10:41:39;;;;;;;6.23;5.07;;;22.90;54.20;;;;;;20485;6756;313035;-71
2022/05/13 10:44:33;;;;;;;6.03;4.60;;;23.10;53.90;;;;;;20835;6745;117448;-71
2022/05/13 10:47:16;;;;;;;5.00;3.80;;;22.70;55.60;;;;;;20835;6753;118736;-70
2022/05/13 10:49:52;;;;;;;4.45;4.05;;;22.60;54.80;;;;;;20650;6799;300380;-69
2022/05/13 10:52:34;;;;;;;4.13;3.50;;;22.80;53.50;;;;;;20627;6741;117509;-69
2022/05/13 10:55:13;;;;;;;5.53;4.10;;;22.50;54.60;;;;;;20850;6750;120789;-70
2022/05/13 10:57:59;;;;;;;4.67;3.47;;;22.40;54.50;;;;;;20862;6750;122758;-68
2022/05/13 11:00:38;;;;;;;4.90;3.50;;;22.20;54.80;;;;;;20821;6750;117579;-69
2022/05/13 11:03:22;;;;;;;4.93;3.70;;;21.80;55.40;;;;;;20822;6756;118074;-68
2022/05/13 11:06:23;;;;;;;3.93;3.63;;;21.90;55.50;;;;;;20833;6756;118300;-68
2022/05/13 11:09:05;;;;;;;6.12;4.18;;;21.70;55.50;;;;;;20649;6741;310029;-68
2022/05/13 11:11:44;;;;;;;5.23;4.10;;;22.10;54.00;;;;;;20657;6759;117144;-68
2022/05/13 11:14:22;;;;;;;7.60;4.43;;;22.30;54.70;;;;;;20852;6741;118022;-67
2022/05/13 11:17:14;;;;;;;8.07;4.30;;;22.30;55.00;;;;;;20816;6756;117275;-68
2022/05/13 11:20:24;;;;;;;6.30;4.73;;;22.30;55.50;;;;;;20607;6756;311577;-70
2022/05/13 11:23:24;;;;;;;4.30;3.80;;;22.80;53.40;;;;;;20817;6756;117200;-68
2022/05/13 11:26:16;;;;;;;5.77;4.47;;;22.90;53.70;;;;;;20609;6756;278840;-72
2022/05/13 11:29:08;;;;;;;6.33;4.67;;;23.20;51.70;;;;;;20646;6741;306992;-68
2022/05/13 11:31:53;;;;;;;6.17;3.53;;;23.70;51.00;;;;;;20687;6744;116999;-68
2022/05/13 11:34:36;;;;;;;4.47;4.00;;;23.70;51.90;;;;;;20796;6755;117303;-69
2022/05/13 11:37:16;;;;;;;6.03;4.17;;;23.80;51.60;;;;;;20602;6756;311154;-69
2022/05/13 11:39:54;;;;;;;4.90;3.73;;;23.80;51.50;;;;;;20816;6756;117052;-70
2022/05/13 11:42:32;;;;;;;6.40;3.57;;;23.80;52.00;;;;;;20667;6756;119639;-68
2022/05/13 11:45:31;;;;;;;4.10;3.23;;;23.70;52.50;;;;;;20816;6756;117674;-69
2022/05/13 11:48:10;;;;;;;6.57;3.20;;;23.70;52.60;;;;;;20787;6759;127662;-70
2022/05/13 11:50:45;;;;;;;5.90;3.67;;;23.50;52.10;;;;;;20799;6741;117361;-69
2022/05/13 11:53:40;;;;;;;6.80;3.47;;;23.50;52.20;;;;;;20870;6756;117059;-69
2022/05/13 11:56:19;;;;;;;7.68;3.97;;;23.40;52.00;;;;;;19961;6801;309741;-70
2022/05/13 11:59:05;;;;;;;8.40;3.90;;;23.80;49.00;;;;;;20812;6756;117536;-69
2022/05/13 12:01:43;;;;;;;4.83;3.40;;;23.90;50.20;;;;;;20721;6756;117009;-69
2022/05/13 12:04:19;;;;;;;4.50;3.37;;;23.90;50.80;;;;;;20782;6756;117115;-70
2022/05/13 12:06:54;;;;;;;4.13;3.43;;;23.70;50.60;;;;;;20810;6756;117215;-69
2022/05/13 12:09:36;;;;;;;7.30;3.30;;;23.60;50.80;;;;;;20815;6756;117221;-69
2022/05/13 12:12:36;;;;;;;5.07;3.00;;;23.90;46.50;;;;;;20431;6756;279137;-68
2022/05/13 12:15:44;;;;;;;4.13;2.70;;;23.80;46.40;;;;;;20618;6756;281439;-68
2022/05/13 12:18:30;;;;;;;3.37;2.30;;;24.30;45.90;;;;;;20841;6756;117033;-69
2022/05/13 12:21:33;;;;;;;4.40;2.80;;;24.30;47.20;;;;;;20510;6756;334987;-71
2022/05/13 12:24:11;;;;;;;5.67;2.90;;;24.30;45.10;;;;;;20576;6756;279640;-69
2022/05/13 12:26:53;;;;;;;5.87;3.03;;;24.60;45.50;;;;;;20592;6759;277119;-69
2022/05/13 12:29:32;;;;;;;4.27;2.97;;;24.80;44.00;;;;;;20751;6761;117714;-68
2022/05/13 12:32:09;;;;;;;6.50;2.80;;;24.40;45.50;;;;;;20656;6779;118664;-69
2022/05/13 12:37:42;;;;;;;4.90;3.00;;;24.20;47.00;;;;;;20905;6733;117549;-69
2022/05/13 12:40:17;;;;;;;6.53;3.13;;;24.30;47.90;;;;;;20614;6734;305416;-69
2022/05/13 12:42:59;;;;;;;4.27;3.10;;;24.50;47.20;;;;;;20935;6721;117433;-70
2022/05/13 12:45:35;;;;;;;3.07;2.87;;;24.60;47.50;;;;;;20810;6765;117509;-68
2022/05/13 12:48:13;;;;;;;5.23;3.07;;;24.50;48.00;;;;;;20612;6751;282257;-68
2022/05/13 12:50:49;;;;;;;4.65;3.42;;;24.70;46.80;;;;;;20598;6745;279006;-69
2022/05/13 12:53:27;;;;;;;4.43;3.23;;;25.10;45.90;;;;;;20895;6737;116994;-68
2022/05/13 12:56:16;;;;;;;5.23;3.53;;;25.10;46.60;;;;;;20916;6722;118475;-70
2022/05/13 12:58:56;;;;;;;4.37;3.30;;;25.20;45.10;;;;;;20727;6722;276553;-71
2022/05/13 13:01:31;;;;;;;6.70;3.60;;;25.20;45.10;;;;;;20582;6722;281235;-69
2022/05/13 13:04:09;;;;;;;4.90;3.60;;;25.40;46.10;;;;;;20779;6767;127535;-69
2022/05/13 13:06:43;;;;;;;6.57;3.20;;;25.30;45.60;;;;;;20823;6760;117158;-69
2022/05/13 13:09:21;;;;;;;6.23;3.97;;;25.00;46.70;;;;;;20624;6752;306105;-70
2022/05/13 13:12:37;;;;;;;3.83;3.50;;;25.00;44.80;;;;;;20725;6748;116917;-69
2022/05/13 13:15:13;;;;;;;5.57;3.23;;;24.90;46.30;;;;;;20606;6752;308085;-69
2022/05/13 13:17:48;;;;;;;5.03;3.67;;;25.10;45.10;;;;;;20491;6793;281187;-69
2022/05/13 13:20:27;;;;;;;5.40;3.50;;;25.30;45.60;;;;;;20649;6781;118164;-69
2022/05/13 13:22:59;;;;;;;3.67;3.20;;;25.20;46.50;;;;;;20826;6752;117574;-69
2022/05/13 13:25:38;;;;;;;6.00;3.57;;;25.00;47.30;;;;;;20806;6762;117229;-69
2022/05/13 13:28:14;;;;;;;3.40;3.13;;;24.80;48.00;;;;;;20755;6762;118227;-69
2022/05/13 13:30:56;;;;;;;4.87;3.60;;;24.70;48.70;;;;;;20512;6777;309361;-69
2022/05/13 13:33:34;;;;;;;4.30;3.90;;;24.90;44.50;;;;;;20589;6765;288385;-69
2022/05/13 13:36:17;;;;;;;4.35;3.95;;;25.30;44.30;;;;;;20568;6769;307682;-69
2022/05/13 13:38:53;;;;;;;6.12;3.30;;;25.30;44.30;;;;;;20597;6769;307061;-69
2022/05/13 13:41:32;;;;;;;4.07;3.60;;;25.40;42.60;;;;;;20709;6781;117072;-69
2022/05/13 13:44:07;;;;;;;3.53;3.23;;;25.20;44.50;;;;;;20788;6764;117670;-69
2022/05/13 13:46:43;;;;;;;5.57;3.80;;;24.90;45.80;;;;;;20534;6779;311234;-69
2022/05/13 13:49:18;;;;;;;4.13;3.83;;;25.00;45.10;;;;;;20594;6762;306121;-69
2022/05/13 13:52:00;;;;;;;4.65;3.50;;;25.20;44.40;;;;;;20505;6753;338544;-69
2022/05/13 13:54:43;;;;;;;3.80;3.40;;;25.40;43.30;;;;;;20631;6746;311627;-70
2022/05/13 13:57:39;;;;;;;3.77;3.37;;;25.40;43.30;;;;;;20614;6759;296214;-70
2022/05/13 14:00:20;;;;;;;3.87;2.97;;;25.30;43.10;;;;;;20825;6749;117335;-69
2022/05/13 14:03:09;;;;;;;3.95;3.30;;;24.90;44.50;;;;;;20581;6804;310136;-69